Time;durP1;ratioP1;P1;durP2;ratioP2;P2;SDS_P1;SDS_P2;PMS_P1;PMS_P2;Temp;Humidity;BMP_temperature;BMP_pressure;BME280_temperature;BME280_humidity;BME280_pressure;Samples;Min_cycle;Max_cycle;Signal;HPM_P1;HPM_P2
2023/12/06 00:01:30;;;;;;;46.13;14.65;;;;;;;;;;5044237;28;20032;-62
2023/12/06 00:03:55;;;;;;;40.95;14.27;;;;;;;;;;5046509;28;20384;-63
2023/12/06 00:06:21;;;;;;;40.72;14.95;;;;;;;;;;5053950;28;20119;-63
2023/12/06 00:08:48;;;;;;;47.50;15.25;;;;;;;;;;5037740;28;20480;-63
2023/12/06 00:11:14;;;;;;;38.83;14.10;;;;;;;;;;5039889;28;20040;-64
2023/12/06 00:13:39;;;;;;;40.58;14.48;;;;;;;;;;5050128;28;20037;-62
2023/12/06 00:16:05;;;;;;;47.95;15.52;;;;;;;;;;5045250;28;20124;-62
2023/12/06 00:18:30;;;;;;;42.28;15.00;;;;;;;;;;5032565;28;20414;-62
2023/12/06 00:20:56;;;;;;;44.53;15.07;;;;;;;;;;5024260;28;20062;-62
2023/12/06 00:23:21;;;;;;;51.65;16.13;;;;;;;;;;5013753;28;20381;-63
2023/12/06 00:25:47;;;;;;;44.05;15.68;;;;;;;;;;5024404;28;20033;-62
2023/12/06 00:28:12;;;;;;;45.80;15.35;;;;;;;;;;5033560;28;20459;-62
2023/12/06 00:30:37;;;;;;;43.00;14.43;;;;;;;;;;5039812;28;20032;-62
2023/12/06 00:33:03;;;;;;;39.92;14.93;;;;;;;;;;5047497;28;20043;-63
2023/12/06 00:35:29;;;;;;;43.08;15.20;;;;;;;;;;5046876;28;20033;-62
2023/12/06 00:37:54;;;;;;;45.85;15.85;;;;;;;;;;5053176;28;20025;-63
2023/12/06 00:40:19;;;;;;;43.10;14.50;;;;;;;;;;5045221;28;20025;-63
2023/12/06 00:42:45;;;;;;;43.30;14.10;;;;;;;;;;5013157;28;20030;-63
2023/12/06 00:45:10;;;;;;;45.85;15.07;;;;;;;;;;5013558;28;20423;-63
2023/12/06 00:47:36;;;;;;;37.13;12.05;;;;;;;;;;5011895;28;20041;-62
2023/12/06 00:50:02;;;;;;;34.53;12.57;;;;;;;;;;5013948;28;20042;-63
2023/12/06 00:52:28;;;;;;;33.95;12.07;;;;;;;;;;5040605;28;20033;-62
2023/12/06 00:54:53;;;;;;;37.13;13.00;;;;;;;;;;5048694;28;20638;-62
2023/12/06 00:57:19;;;;;;;35.88;12.40;;;;;;;;;;5046905;28;20379;-63
2023/12/06 00:59:44;;;;;;;36.30;12.48;;;;;;;;;;5046626;28;20083;-63
2023/12/06 01:02:09;;;;;;;33.65;12.35;;;;;;;;;;5039332;28;20190;-62
2023/12/06 01:04:38;;;;;;;31.90;11.38;;;;;;;;;;5040713;28;20038;-62
2023/12/06 01:07:04;;;;;;;35.10;12.98;;;;;;;;;;5033286;28;20098;-62
2023/12/06 01:09:30;;;;;;;34.75;13.13;;;;;;;;;;5049095;28;20098;-62
2023/12/06 01:11:55;;;;;;;31.30;11.77;;;;;;;;;;5019871;28;20077;-62
2023/12/06 01:14:22;;;;;;;44.45;13.10;;;;;;;;;;5036961;28;20033;-64
2023/12/06 01:16:47;;;;;;;33.80;12.38;;;;;;;;;;5035460;28;20153;-65
2023/12/06 01:19:15;;;;;;;39.70;13.45;;;;;;;;;;5032173;28;20128;-64
2023/12/06 01:21:41;;;;;;;36.88;12.45;;;;;;;;;;5046141;28;20045;-62
2023/12/06 01:24:07;;;;;;;40.33;14.07;;;;;;;;;;5046667;28;20028;-64
2023/12/06 01:26:32;;;;;;;41.33;14.10;;;;;;;;;;5051583;28;20124;-62
2023/12/06 01:28:59;;;;;;;39.10;13.63;;;;;;;;;;5043123;28;20094;-62
2023/12/06 01:31:24;;;;;;;37.50;12.68;;;;;;;;;;5043576;28;20337;-63
2023/12/06 01:33:50;;;;;;;36.20;13.98;;;;;;;;;;5044718;28;20045;-62
2023/12/06 01:36:15;;;;;;;36.50;13.00;;;;;;;;;;5037596;28;20053;-63
2023/12/06 01:38:42;;;;;;;40.97;14.23;;;;;;;;;;5046964;28;20364;-63
2023/12/06 01:41:11;;;;;;;35.80;13.60;;;;;;;;;;5048406;28;20082;-63
2023/12/06 01:43:42;;;;;;;36.85;13.15;;;;;;;;;;5044371;28;20925;-62
2023/12/06 01:46:07;;;;;;;38.42;13.25;;;;;;;;;;5045318;28;20033;-63
2023/12/06 01:48:33;;;;;;;31.85;12.20;;;;;;;;;;5037483;28;20158;-62
2023/12/06 01:50:59;;;;;;;36.33;12.20;;;;;;;;;;5047884;28;20033;-63
2023/12/06 01:53:24;;;;;;;34.97;12.52;;;;;;;;;;5048206;28;20448;-63
2023/12/06 01:55:50;;;;;;;39.75;12.90;;;;;;;;;;5045692;28;20055;-63
2023/12/06 01:58:16;;;;;;;34.80;12.48;;;;;;;;;;5043853;28;20246;-63
2023/12/06 02:00:43;;;;;;;31.65;12.13;;;;;;;;;;5041846;28;20029;-64
2023/12/06 02:03:08;;;;;;;31.83;11.73;;;;;;;;;;5029751;28;20033;-63
2023/12/06 02:05:34;;;;;;;35.25;13.15;;;;;;;;;;5045836;28;20025;-62
2023/12/06 02:08:02;;;;;;;34.53;12.23;;;;;;;;;;5038047;28;20038;-64
2023/12/06 02:10:27;;;;;;;31.67;12.50;;;;;;;;;;5034983;28;20037;-63
2023/12/06 02:12:53;;;;;;;35.63;12.73;;;;;;;;;;5038461;28;20030;-62
2023/12/06 02:15:18;;;;;;;34.42;12.85;;;;;;;;;;5039779;28;20033;-62
2023/12/06 02:17:44;;;;;;;33.17;12.82;;;;;;;;;;5043473;28;20495;-62
2023/12/06 02:20:10;;;;;;;36.97;12.55;;;;;;;;;;5047736;28;20049;-62
2023/12/06 02:22:36;;;;;;;32.10;12.75;;;;;;;;;;5047187;28;20108;-62
2023/12/06 02:25:03;;;;;;;35.38;13.10;;;;;;;;;;5051592;28;20140;-62
2023/12/06 02:27:28;;;;;;;36.53;12.77;;;;;;;;;;5033453;28;20116;-62
2023/12/06 02:29:54;;;;;;;40.55;13.55;;;;;;;;;;5028969;28;20165;-62
2023/12/06 02:32:19;;;;;;;36.83;13.15;;;;;;;;;;5030843;28;20442;-62
2023/12/06 02:34:50;;;;;;;39.30;14.48;;;;;;;;;;5042407;28;20025;-62
2023/12/06 02:37:16;;;;;;;;;;;;;;;;;;5037166;28;20492;-64
2023/12/06 02:39:44;;;;;;;36.33;12.30;;;;;;;;;;5030627;28;19909;-62
2023/12/06 02:42:09;;;;;;;41.15;12.88;;;;;;;;;;5034975;28;20112;-62
2023/12/06 02:44:39;;;;;;;42.13;14.73;;;;;;;;;;5043905;28;20112;-62
2023/12/06 02:47:04;;;;;;;35.72;14.02;;;;;;;;;;5049795;28;20043;-63
2023/12/06 02:49:30;;;;;;;38.80;13.18;;;;;;;;;;5039597;28;20995;-62
2023/12/06 02:51:56;;;;;;;46.13;15.10;;;;;;;;;;5047772;28;20274;-62
2023/12/06 02:54:23;;;;;;;44.47;14.68;;;;;;;;;;5042571;28;20329;-63
2023/12/06 02:56:48;;;;;;;51.15;16.35;;;;;;;;;;5033386;28;20041;-62
2023/12/06 02:59:14;;;;;;;51.60;13.90;;;;;;;;;;5045891;28;20425;-63
2023/12/06 03:01:47;;;;;;;60.28;18.77;;;;;;;;;;5038243;28;20608;-63
2023/12/06 03:04:14;;;;;;;68.30;19.15;;;;;;;;;;5034622;28;20041;-63
2023/12/06 03:06:39;;;;;;;73.75;20.45;;;;;;;;;;5048121;28;20041;-64
2023/12/06 03:09:05;;;;;;;51.40;18.10;;;;;;;;;;5053523;28;20171;-62
2023/12/06 03:11:31;;;;;;;75.22;22.17;;;;;;;;;;5047239;28;20383;-63
2023/12/06 03:13:56;;;;;;;67.65;21.20;;;;;;;;;;5043749;28;20039;-63
2023/12/06 03:16:21;;;;;;;59.38;19.90;;;;;;;;;;5046666;28;20104;-62
2023/12/06 03:18:47;;;;;;;60.92;19.85;;;;;;;;;;5048000;28;20039;-61
2023/12/06 03:21:12;;;;;;;81.45;23.85;;;;;;;;;;5052215;28;20044;-63
2023/12/06 03:23:37;;;;;;;77.68;22.45;;;;;;;;;;5042779;28;20048;-62
2023/12/06 03:26:03;;;;;;;82.18;23.27;;;;;;;;;;5049616;28;20447;-62
2023/12/06 03:28:28;;;;;;;76.32;22.63;;;;;;;;;;5052587;28;20064;-63
2023/12/06 03:30:54;;;;;;;71.47;22.63;;;;;;;;;;5025275;28;20027;-62
2023/12/06 03:33:19;;;;;;;71.90;23.30;;;;;;;;;;5041742;28;20068;-63
2023/12/06 03:35:44;;;;;;;77.40;22.50;;;;;;;;;;5042621;28;20033;-62
2023/12/06 03:38:10;;;;;;;81.28;23.02;;;;;;;;;;5052864;28;20083;-62
2023/12/06 03:40:36;;;;;;;75.53;21.92;;;;;;;;;;5048391;28;20456;-62
2023/12/06 03:43:01;;;;;;;81.75;22.77;;;;;;;;;;5045825;28;20033;-62
2023/12/06 03:45:26;;;;;;;79.75;24.42;;;;;;;;;;5044725;28;20340;-62
2023/12/06 03:47:52;;;;;;;73.75;23.15;;;;;;;;;;5026475;28;20033;-63
2023/12/06 03:50:17;;;;;;;73.82;22.00;;;;;;;;;;5033781;28;20033;-62
2023/12/06 03:52:43;;;;;;;82.63;25.80;;;;;;;;;;5038524;28;20438;-62
2023/12/06 03:55:08;;;;;;;73.97;24.17;;;;;;;;;;5047737;28;20044;-62
2023/12/06 03:57:33;;;;;;;66.82;21.15;;;;;;;;;;5041552;28;20025;-62
2023/12/06 03:59:59;;;;;;;78.82;22.70;;;;;;;;;;5019668;28;20614;-63
2023/12/06 04:02:24;;;;;;;83.20;25.58;;;;;;;;;;5019977;28;20091;-61
2023/12/06 04:04:49;;;;;;;88.55;26.55;;;;;;;;;;5032579;28;20509;-62
2023/12/06 04:07:16;;;;;;;88.93;27.27;;;;;;;;;;5034070;28;20057;-63
2023/12/06 04:09:41;;;;;;;88.65;27.52;;;;;;;;;;5038588;28;20167;-61
2023/12/06 04:12:07;;;;;;;84.97;23.50;;;;;;;;;;5047375;28;20116;-62
2023/12/06 04:14:33;;;;;;;90.30;27.02;;;;;;;;;;5035524;28;20037;-61
2023/12/06 04:16:58;;;;;;;71.43;23.17;;;;;;;;;;5044458;28;20041;-61
2023/12/06 04:19:23;;;;;;;91.70;28.52;;;;;;;;;;5037051;28;20038;-61
2023/12/06 04:21:50;;;;;;;75.53;23.95;;;;;;;;;;5021033;28;20045;-66
2023/12/06 04:24:15;;;;;;;77.63;24.98;;;;;;;;;;5030599;28;20037;-63
2023/12/06 04:26:40;;;;;;;90.05;28.10;;;;;;;;;;5029695;28;20396;-63
2023/12/06 04:29:06;;;;;;;47.17;16.52;;;;;;;;;;5019833;28;20030;-63
2023/12/06 04:31:31;;;;;;;67.00;22.90;;;;;;;;;;5033168;28;20385;-63
2023/12/06 04:33:57;;;;;;;89.13;27.48;;;;;;;;;;5027254;28;20034;-63
2023/12/06 04:36:22;;;;;;;63.42;20.00;;;;;;;;;;5013251;28;20029;-63
2023/12/06 04:38:47;;;;;;;76.53;25.38;;;;;;;;;;5012859;28;20026;-62
2023/12/06 04:41:14;;;;;;;85.40;26.42;;;;;;;;;;5013806;28;20481;-62
2023/12/06 04:43:40;;;;;;;90.53;27.35;;;;;;;;;;5028036;28;20025;-62
2023/12/06 04:46:05;;;;;;;82.65;27.00;;;;;;;;;;5012343;28;20446;-62
2023/12/06 04:48:30;;;;;;;84.05;27.65;;;;;;;;;;5013182;28;20026;-62
2023/12/06 04:50:56;;;;;;;83.30;25.73;;;;;;;;;;5012380;28;20061;-62
2023/12/06 04:53:21;;;;;;;87.47;27.50;;;;;;;;;;5013070;28;20469;-63
2023/12/06 04:55:47;;;;;;;75.57;24.63;;;;;;;;;;5031324;28;20025;-62
2023/12/06 04:58:13;;;;;;;71.93;23.60;;;;;;;;;;5032631;28;20468;-62
2023/12/06 05:00:39;;;;;;;87.93;26.85;;;;;;;;;;5032796;28;20044;-63
2023/12/06 05:03:04;;;;;;;71.45;24.85;;;;;;;;;;5032150;28;20818;-62
2023/12/06 05:05:29;;;;;;;59.20;20.83;;;;;;;;;;5031381;28;20461;-62
2023/12/06 05:07:57;;;;;;;70.38;20.95;;;;;;;;;;5031710;28;20138;-62
2023/12/06 05:10:23;;;;;;;69.82;24.25;;;;;;;;;;5025627;28;20369;-63
2023/12/06 05:12:48;;;;;;;80.95;25.85;;;;;;;;;;5012262;28;20026;-62
2023/12/06 05:15:14;;;;;;;79.80;26.27;;;;;;;;;;5012836;28;20059;-63
2023/12/06 05:17:39;;;;;;;85.72;26.80;;;;;;;;;;5013012;28;20109;-63
2023/12/06 05:20:06;;;;;;;81.18;25.95;;;;;;;;;;5012098;28;20065;-63
2023/12/06 05:22:32;;;;;;;79.45;26.23;;;;;;;;;;5012221;28;20041;-63
2023/12/06 05:24:57;;;;;;;84.25;26.60;;;;;;;;;;5012649;28;20034;-62
2023/12/06 05:27:22;;;;;;;79.68;26.40;;;;;;;;;;5027847;28;20045;-62
2023/12/06 05:29:48;;;;;;;65.95;22.17;;;;;;;;;;5029062;28;20418;-62
2023/12/06 05:32:13;;;;;;;81.10;24.85;;;;;;;;;;5012761;28;20084;-62
2023/12/06 05:34:39;;;;;;;77.30;24.55;;;;;;;;;;5020572;28;20021;-63
2023/12/06 05:37:04;;;;;;;79.18;26.48;;;;;;;;;;5031452;28;20108;-62
2023/12/06 05:39:31;;;;;;;73.88;24.95;;;;;;;;;;5028033;28;20352;-62
2023/12/06 05:41:56;;;;;;;73.88;24.30;;;;;;;;;;5031558;28;20033;-61
2023/12/06 05:44:22;;;;;;;79.65;25.77;;;;;;;;;;5024920;28;20038;-62
2023/12/06 05:46:47;;;;;;;70.60;23.98;;;;;;;;;;5022586;28;20033;-61
2023/12/06 05:49:13;;;;;;;79.70;25.67;;;;;;;;;;5030901;28;20387;-62
2023/12/06 05:51:38;;;;;;;68.72;25.55;;;;;;;;;;5031851;28;20030;-62
2023/12/06 05:54:04;;;;;;;65.30;22.60;;;;;;;;;;5029937;28;20033;-62
2023/12/06 05:56:29;;;;;;;75.10;25.70;;;;;;;;;;5032184;28;20461;-62
2023/12/06 05:58:55;;;;;;;86.60;26.58;;;;;;;;;;5031316;28;20104;-62
2023/12/06 06:01:20;;;;;;;77.70;26.80;;;;;;;;;;5030797;28;20483;-62
2023/12/06 06:03:45;;;;;;;69.82;24.15;;;;;;;;;;5029998;28;20479;-61
2023/12/06 06:06:11;;;;;;;81.95;27.10;;;;;;;;;;5011700;28;20022;-61
2023/12/06 06:08:36;;;;;;;72.50;24.45;;;;;;;;;;5012184;28;20131;-62
2023/12/06 06:11:04;;;;;;;78.32;24.77;;;;;;;;;;5011469;28;20044;-62
2023/12/06 06:13:30;;;;;;;77.57;25.48;;;;;;;;;;5011945;28;20137;-62
2023/12/06 06:15:56;;;;;;;79.82;25.67;;;;;;;;;;5041741;28;20492;-62
2023/12/06 06:18:22;;;;;;;69.93;24.98;;;;;;;;;;5012068;28;20124;-62
2023/12/06 06:20:48;;;;;;;70.50;24.13;;;;;;;;;;5011231;28;20520;-62
2023/12/06 06:23:13;;;;;;;84.70;27.63;;;;;;;;;;5011410;28;20030;-63
2023/12/06 06:25:38;;;;;;;71.88;23.77;;;;;;;;;;5012057;28;20030;-62
2023/12/06 06:28:04;;;;;;;53.80;20.67;;;;;;;;;;5030779;28;20025;-62
2023/12/06 06:30:29;;;;;;;71.43;23.88;;;;;;;;;;5031696;28;20083;-62
2023/12/06 06:32:55;;;;;;;66.22;24.73;;;;;;;;;;5029971;28;20053;-63
2023/12/06 06:35:20;;;;;;;66.85;24.98;;;;;;;;;;5029797;28;20456;-62
2023/12/06 06:37:46;;;;;;;70.25;24.45;;;;;;;;;;5030349;28;20060;-62
2023/12/06 06:40:11;;;;;;;67.45;24.08;;;;;;;;;;5030696;28;20030;-62
2023/12/06 06:42:37;;;;;;;72.82;25.00;;;;;;;;;;5031442;28;20124;-62
2023/12/06 06:45:03;;;;;;;72.22;25.13;;;;;;;;;;5030099;28;20458;-62
2023/12/06 06:47:29;;;;;;;54.88;20.80;;;;;;;;;;5031393;28;20144;-61
2023/12/06 06:49:57;;;;;;;70.50;24.75;;;;;;;;;;5030659;28;20101;-61
2023/12/06 06:52:22;;;;;;;66.75;23.98;;;;;;;;;;5031383;28;20038;-62
2023/12/06 06:54:48;;;;;;;66.03;24.92;;;;;;;;;;5029556;28;20026;-61
2023/12/06 06:57:13;;;;;;;66.97;25.05;;;;;;;;;;5030605;28;20521;-62
2023/12/06 06:59:39;;;;;;;70.13;25.55;;;;;;;;;;5031112;28;20383;-64
2023/12/06 07:02:04;;;;;;;65.18;25.65;;;;;;;;;;5030538;28;20084;-62
2023/12/06 07:04:31;;;;;;;62.63;25.25;;;;;;;;;;5026438;28;20058;-62
2023/12/06 07:06:57;;;;;;;66.30;26.27;;;;;;;;;;5020194;28;20036;-62
2023/12/06 07:09:22;;;;;;;71.32;25.25;;;;;;;;;;5029929;28;20047;-61
2023/12/06 07:11:47;;;;;;;59.42;22.80;;;;;;;;;;5030975;28;20072;-61
2023/12/06 07:14:13;;;;;;;60.13;22.60;;;;;;;;;;5026368;28;20026;-61
2023/12/06 07:16:38;;;;;;;56.58;23.25;;;;;;;;;;5015422;28;20116;-62
2023/12/06 07:19:04;;;;;;;66.88;25.52;;;;;;;;;;5030130;28;20025;-60
2023/12/06 07:21:29;;;;;;;60.17;23.40;;;;;;;;;;5031581;28;20606;-60
2023/12/06 07:23:54;;;;;;;63.38;24.63;;;;;;;;;;5030145;28;20040;-59
2023/12/06 07:26:20;;;;;;;53.38;20.35;;;;;;;;;;5031020;28;20030;-60
2023/12/06 07:28:45;;;;;;;49.88;20.30;;;;;;;;;;5031153;28;20034;-61
2023/12/06 07:31:11;;;;;;;47.38;19.85;;;;;;;;;;5030196;28;20033;-60
2023/12/06 07:33:39;;;;;;;54.10;22.88;;;;;;;;;;5028022;28;20029;-60
2023/12/06 07:36:05;;;;;;;56.78;21.77;;;;;;;;;;5028519;28;20120;-60
2023/12/06 07:38:30;;;;;;;61.80;22.52;;;;;;;;;;5030721;28;20028;-60
2023/12/06 07:40:56;;;;;;;57.00;22.42;;;;;;;;;;5030062;28;20461;-60
2023/12/06 07:43:22;;;;;;;49.03;18.98;;;;;;;;;;5030821;28;20446;-60
2023/12/06 07:45:48;;;;;;;38.60;15.98;;;;;;;;;;5033665;28;20033;-60
2023/12/06 07:48:13;;;;;;;56.97;21.08;;;;;;;;;;5033755;28;20241;-60
2023/12/06 07:50:38;;;;;;;51.53;19.92;;;;;;;;;;5034158;28;20036;-60
2023/12/06 07:53:04;;;;;;;47.80;20.42;;;;;;;;;;5031463;28;20120;-67
2023/12/06 07:55:29;;;;;;;50.53;20.02;;;;;;;;;;5034234;28;20036;-62
2023/12/06 07:57:54;;;;;;;48.10;20.23;;;;;;;;;;5033432;28;20118;-61
2023/12/06 08:00:20;;;;;;;48.65;19.83;;;;;;;;;;5032773;28;20038;-64
2023/12/06 08:02:45;;;;;;;50.42;20.60;;;;;;;;;;5020128;28;20091;-62
2023/12/06 08:05:11;;;;;;;50.03;20.50;;;;;;;;;;5013675;28;20200;-62
2023/12/06 08:07:37;;;;;;;38.75;18.13;;;;;;;;;;5014282;28;20033;-62
2023/12/06 08:10:19;;;;;;;44.35;19.50;;;;;;;;;;5013465;28;20046;-61
2023/12/06 08:12:45;;;;;;;51.83;20.30;;;;;;;;;;5014366;28;20088;-61
2023/12/06 08:15:10;;;;;;;49.50;21.08;;;;;;;;;;5013040;28;20030;-61
2023/12/06 08:17:36;;;;;;;55.35;21.25;;;;;;;;;;5014212;28;20021;-61
2023/12/06 08:20:01;;;;;;;53.72;21.27;;;;;;;;;;5013491;28;20471;-61
2023/12/06 08:22:27;;;;;;;51.92;20.23;;;;;;;;;;5024616;28;20044;-61
2023/12/06 08:24:56;;;;;;;49.53;21.08;;;;;;;;;;5033745;28;20107;-61
2023/12/06 08:27:24;;;;;;;59.03;23.02;;;;;;;;;;5033701;28;20035;-62
2023/12/06 08:29:50;;;;;;;50.75;20.30;;;;;;;;;;5032570;28;20486;-61
2023/12/06 08:32:15;;;;;;;52.03;20.48;;;;;;;;;;5031534;28;20029;-62
2023/12/06 08:34:40;;;;;;;54.90;21.25;;;;;;;;;;5033725;28;20384;-61
2023/12/06 08:37:06;;;;;;;43.72;17.83;;;;;;;;;;5032799;28;20041;-61
2023/12/06 08:39:34;;;;;;;50.50;20.83;;;;;;;;;;5033663;28;20057;-61
2023/12/06 08:42:00;;;;;;;48.92;19.98;;;;;;;;;;5025785;28;20591;-61
2023/12/06 08:44:25;;;;;;;54.35;20.85;;;;;;;;;;5013702;28;20069;-61
2023/12/06 08:46:50;;;;;;;50.95;20.33;;;;;;;;;;5013472;28;20029;-62
2023/12/06 08:49:16;;;;;;;48.35;19.15;;;;;;;;;;5012856;28;20028;-61
2023/12/06 08:51:41;;;;;;;42.58;17.92;;;;;;;;;;5017370;28;20100;-61
2023/12/06 08:54:06;;;;;;;50.25;19.23;;;;;;;;;;5032840;28;20430;-62
2023/12/06 08:56:32;;;;;;;45.58;18.42;;;;;;;;;;5032439;28;20061;-61
2023/12/06 08:58:57;;;;;;;52.50;20.75;;;;;;;;;;5032923;28;20449;-61
2023/12/06 09:01:23;;;;;;;53.33;22.20;;;;;;;;;;5032058;28;20029;-61
2023/12/06 09:03:48;;;;;;;46.40;20.27;;;;;;;;;;5017170;28;20426;-61
2023/12/06 09:06:13;;;;;;;49.15;21.00;;;;;;;;;;5030940;28;20026;-61
2023/12/06 09:08:39;;;;;;;51.85;20.55;;;;;;;;;;5033079;28;20033;-61
2023/12/06 09:11:04;;;;;;;50.08;21.63;;;;;;;;;;5032281;28;20036;-60
2023/12/06 09:13:29;;;;;;;52.67;20.42;;;;;;;;;;5031155;28;20064;-61
2023/12/06 09:15:55;;;;;;;49.58;20.30;;;;;;;;;;5032757;28;20376;-61
2023/12/06 09:18:21;;;;;;;50.58;20.90;;;;;;;;;;5031791;28;20040;-61
2023/12/06 09:20:47;;;;;;;45.92;20.65;;;;;;;;;;5032436;28;20050;-61
2023/12/06 09:23:12;;;;;;;48.58;19.17;;;;;;;;;;5014971;28;20038;-60
2023/12/06 09:25:37;;;;;;;48.72;20.92;;;;;;;;;;5012409;28;20032;-61
2023/12/06 09:28:04;;;;;;;48.53;20.77;;;;;;;;;;5011932;28;20052;-60
2023/12/06 09:30:30;;;;;;;49.97;20.45;;;;;;;;;;5012715;28;20026;-61
2023/12/06 09:32:56;;;;;;;48.67;20.58;;;;;;;;;;5013223;28;20037;-61
2023/12/06 09:35:22;;;;;;;43.28;20.65;;;;;;;;;;5011884;28;20120;-60
2023/12/06 09:37:48;;;;;;;43.40;19.80;;;;;;;;;;5012721;28;20109;-61
2023/12/06 09:40:14;;;;;;;41.53;18.65;;;;;;;;;;5011788;28;20117;-61
2023/12/06 09:42:45;;;;;;;44.53;20.90;;;;;;;;;;5024476;28;20060;-61
2023/12/06 09:45:12;;;;;;;42.83;20.30;;;;;;;;;;5031720;28;20499;-60
2023/12/06 09:47:42;;;;;;;45.30;20.45;;;;;;;;;;5031973;28;20041;-61
2023/12/06 09:50:09;;;;;;;41.22;20.42;;;;;;;;;;5031401;28;20167;-60
2023/12/06 09:52:35;;;;;;;39.88;18.95;;;;;;;;;;5030293;28;20471;-60
2023/12/06 09:55:01;;;;;;;42.28;20.15;;;;;;;;;;5031395;28;20038;-59
2023/12/06 09:57:26;;;;;;;44.20;19.90;;;;;;;;;;5031756;28;20036;-61
2023/12/06 09:59:51;;;;;;;41.42;19.10;;;;;;;;;;5031869;28;20032;-60
2023/12/06 10:02:17;;;;;;;40.05;19.42;;;;;;;;;;5020737;28;20141;-60
2023/12/06 10:04:42;;;;;;;39.33;19.00;;;;;;;;;;5011020;28;20042;-61
2023/12/06 10:07:09;;;;;;;30.05;14.07;;;;;;;;;;5010906;28;20022;-60
2023/12/06 10:09:35;;;;;;;36.30;16.85;;;;;;;;;;5011654;28;20026;-61
2023/12/06 10:12:10;;;;;;;34.15;18.33;;;;;;;;;;5018188;28;20080;-60
2023/12/06 10:14:36;;;;;;;36.72;17.85;;;;;;;;;;5031791;28;20041;-60
2023/12/06 10:17:02;;;;;;;35.53;17.17;;;;;;;;;;5031383;28;20037;-60
2023/12/06 10:19:29;;;;;;;32.30;16.98;;;;;;;;;;5031236;28;20049;-61
2023/12/06 10:21:56;;;;;;;37.28;17.67;;;;;;;;;;5024668;28;20037;-61
2023/12/06 10:24:21;;;;;;;33.95;17.67;;;;;;;;;;5010942;28;20029;-61
2023/12/06 10:26:49;;;;;;;33.15;17.15;;;;;;;;;;5011625;28;20037;-60
2023/12/06 10:29:14;;;;;;;31.60;16.15;;;;;;;;;;5010956;28;20046;-60
2023/12/06 10:31:42;;;;;;;30.50;15.77;;;;;;;;;;5017697;28;20438;-61
2023/12/06 10:34:08;;;;;;;29.17;15.95;;;;;;;;;;5017306;28;20029;-60
2023/12/06 10:36:36;;;;;;;31.48;17.02;;;;;;;;;;5021658;28;20396;-61
2023/12/06 10:39:02;;;;;;;31.50;16.80;;;;;;;;;;5021002;28;20030;-56
2023/12/06 10:41:31;;;;;;;29.75;16.35;;;;;;;;;;5010982;28;20025;-61
2023/12/06 10:43:59;;;;;;;27.15;14.45;;;;;;;;;;5011660;28;20048;-60
2023/12/06 10:46:26;;;;;;;26.30;14.35;;;;;;;;;;5010356;28;20630;-60
2023/12/06 10:48:53;;;;;;;21.60;12.10;;;;;;;;;;5011809;28;20065;-61
2023/12/06 10:51:19;;;;;;;27.00;13.82;;;;;;;;;;5032540;28;20030;-60
2023/12/06 10:53:46;;;;;;;26.52;15.13;;;;;;;;;;5011501;28;20447;-61
2023/12/06 10:56:13;;;;;;;24.90;13.73;;;;;;;;;;5010633;28;20034;-60
2023/12/06 10:58:39;;;;;;;26.23;14.27;;;;;;;;;;5041528;28;20054;-62
2023/12/06 11:01:05;;;;;;;23.98;13.80;;;;;;;;;;5019691;28;20086;-60
2023/12/06 11:03:30;;;;;;;27.90;14.68;;;;;;;;;;5029344;28;20084;-62
2023/12/06 11:06:03;;;;;;;25.23;13.05;;;;;;;;;;5030813;28;20029;-61
2023/12/06 11:08:47;;;;;;;27.90;14.75;;;;;;;;;;5027447;28;20033;-63
2023/12/06 11:11:21;;;;;;;30.00;15.23;;;;;;;;;;5010348;28;20443;-62
2023/12/06 11:13:55;;;;;;;32.40;16.05;;;;;;;;;;5011757;28;20034;-62
2023/12/06 11:16:54;;;;;;;31.55;14.80;;;;;;;;;;5010281;28;20037;-63
2023/12/06 11:19:21;;;;;;;29.35;16.02;;;;;;;;;;5021068;28;20135;-63
2023/12/06 11:21:47;;;;;;;29.50;15.63;;;;;;;;;;5035267;28;20029;-63
2023/12/06 11:24:13;;;;;;;28.33;16.33;;;;;;;;;;5034140;28;20029;-64
2023/12/06 11:26:39;;;;;;;26.88;14.05;;;;;;;;;;5034876;28;20353;-63
2023/12/06 11:29:06;;;;;;;30.05;14.02;;;;;;;;;;5027574;28;20034;-61
2023/12/06 11:31:37;;;;;;;28.73;15.60;;;;;;;;;;5014420;28;20109;-63
2023/12/06 11:34:04;;;;;;;;;;;;;;;;;;5015491;28;20160;-63
2023/12/06 11:36:29;;;;;;;23.77;12.38;;;;;;;;;;5014120;28;19936;-63
2023/12/06 11:38:55;;;;;;;32.88;16.05;;;;;;;;;;5014997;28;20038;-63
2023/12/06 11:41:21;;;;;;;29.35;15.15;;;;;;;;;;5014677;28;20030;-63
2023/12/06 11:43:51;;;;;;;30.75;16.38;;;;;;;;;;5028234;28;20033;-64
2023/12/06 11:46:18;;;;;;;38.58;17.85;;;;;;;;;;5033571;28;20029;-62
2023/12/06 11:48:46;;;;;;;28.58;14.70;;;;;;;;;;5031799;28;20037;-64
2023/12/06 11:51:21;;;;;;;28.15;14.10;;;;;;;;;;5032678;28;20029;-63
2023/12/06 11:53:47;;;;;;;23.88;12.52;;;;;;;;;;5034311;28;20040;-64
2023/12/06 11:56:23;;;;;;;30.95;17.30;;;;;;;;;;5033585;28;20037;-64
2023/12/06 11:58:50;;;;;;;32.03;17.10;;;;;;;;;;5031135;28;20026;-64
2023/12/06 12:01:15;;;;;;;36.75;18.48;;;;;;;;;;5013589;28;20030;-63
2023/12/06 12:03:41;;;;;;;34.50;18.40;;;;;;;;;;5028527;28;20044;-63
2023/12/06 12:06:08;;;;;;;34.55;18.08;;;;;;;;;;5033797;28;20025;-62
2023/12/06 12:08:34;;;;;;;31.92;17.77;;;;;;;;;;5032558;28;20029;-62
2023/12/06 12:10:59;;;;;;;36.10;18.58;;;;;;;;;;5013950;28;20404;-63
2023/12/06 12:13:26;;;;;;;28.70;16.33;;;;;;;;;;5013389;28;20040;-62
2023/12/06 12:16:01;;;;;;;27.05;13.18;;;;;;;;;;5014272;28;20029;-62
2023/12/06 12:18:27;;;;;;;31.63;16.33;;;;;;;;;;5013260;28;20527;-62
2023/12/06 12:20:55;;;;;;;31.63;17.17;;;;;;;;;;5032150;28;20052;-62
2023/12/06 12:23:21;;;;;;;32.38;18.00;;;;;;;;;;5033141;28;20124;-62
2023/12/06 12:25:48;;;;;;;31.45;17.73;;;;;;;;;;5033668;28;20033;-63
2023/12/06 12:28:18;;;;;;;35.65;17.75;;;;;;;;;;5030914;28;20033;-61
2023/12/06 12:30:46;;;;;;;32.60;16.75;;;;;;;;;;5032591;28;20044;-62
2023/12/06 12:33:13;;;;;;;29.58;14.27;;;;;;;;;;5032915;28;20029;-61
2023/12/06 12:35:39;;;;;;;30.00;16.60;;;;;;;;;;5033522;28;20032;-62
2023/12/06 12:38:04;;;;;;;28.05;15.32;;;;;;;;;;5032757;28;20379;-62
2023/12/06 12:40:30;;;;;;;26.50;15.77;;;;;;;;;;5013073;28;20033;-62
2023/12/06 12:42:56;;;;;;;22.77;12.10;;;;;;;;;;5013651;28;20388;-62
2023/12/06 12:45:21;;;;;;;21.75;12.73;;;;;;;;;;5011666;28;20467;-62
2023/12/06 12:47:47;;;;;;;27.67;16.33;;;;;;;;;;5013443;28;20034;-62
2023/12/06 12:50:20;;;;;;;28.65;12.98;;;;;;;;;;5028924;28;20029;-61
2023/12/06 12:52:45;;;;;;;27.33;13.40;;;;;;;;;;5033136;28;20037;-62
2023/12/06 12:55:12;;;;;;;22.80;12.45;;;;;;;;;;5033006;28;20026;-61
2023/12/06 12:57:42;;;;;;;28.15;15.30;;;;;;;;;;5032886;28;20026;-61
2023/12/06 13:00:17;;;;;;;28.10;15.63;;;;;;;;;;5017636;28;20115;-61
2023/12/06 13:02:43;;;;;;;26.52;14.43;;;;;;;;;;5022535;28;20502;-63
2023/12/06 13:05:09;;;;;;;22.38;13.38;;;;;;;;;;5033192;28;20029;-62
2023/12/06 13:07:34;;;;;;;27.05;13.65;;;;;;;;;;5032068;28;20116;-62
2023/12/06 13:10:04;;;;;;;24.35;14.18;;;;;;;;;;5018681;28;20169;-62
2023/12/06 13:12:29;;;;;;;23.08;12.15;;;;;;;;;;5012390;28;20030;-62
2023/12/06 13:14:55;;;;;;;25.25;14.05;;;;;;;;;;5012954;28;20026;-62
2023/12/06 13:17:20;;;;;;;22.33;13.13;;;;;;;;;;5011957;28;20076;-62
2023/12/06 13:19:45;;;;;;;19.75;9.65;;;;;;;;;;5013243;28;20485;-62
2023/12/06 13:22:11;;;;;;;20.48;10.20;;;;;;;;;;5012871;28;20041;-61
2023/12/06 13:24:36;;;;;;;23.17;13.55;;;;;;;;;;5012180;28;20038;-62
2023/12/06 13:27:02;;;;;;;22.52;12.75;;;;;;;;;;5012840;28;20037;-62
2023/12/06 13:29:28;;;;;;;21.45;10.68;;;;;;;;;;5012072;28;20041;-62
2023/12/06 13:31:54;;;;;;;21.27;13.60;;;;;;;;;;5013248;28;20096;-62
2023/12/06 13:34:19;;;;;;;23.63;12.93;;;;;;;;;;5012037;28;20096;-61
2023/12/06 13:36:45;;;;;;;21.67;12.20;;;;;;;;;;5012483;28;20057;-61
2023/12/06 13:39:11;;;;;;;24.90;13.55;;;;;;;;;;5012694;28;20033;-62
2023/12/06 13:41:37;;;;;;;26.85;14.32;;;;;;;;;;5026675;28;20103;-62
2023/12/06 13:44:02;;;;;;;24.15;13.27;;;;;;;;;;5012438;28;20033;-62
2023/12/06 13:46:28;;;;;;;23.17;13.65;;;;;;;;;;5010447;28;20077;-61
2023/12/06 13:48:53;;;;;;;23.48;13.63;;;;;;;;;;5016455;28;20424;-61
2023/12/06 13:51:19;;;;;;;20.15;11.43;;;;;;;;;;5031310;28;20021;-61
2023/12/06 13:53:44;;;;;;;20.63;10.48;;;;;;;;;;5032212;28;20033;-62
2023/12/06 13:56:09;;;;;;;23.52;12.88;;;;;;;;;;5032248;28;20038;-61
2023/12/06 13:58:35;;;;;;;22.77;12.65;;;;;;;;;;5024218;28;20033;-61
2023/12/06 14:01:01;;;;;;;22.90;12.15;;;;;;;;;;5012278;28;20057;-61
2023/12/06 14:03:27;;;;;;;18.23;10.30;;;;;;;;;;5011730;28;20084;-61
2023/12/06 14:05:53;;;;;;;17.70;10.88;;;;;;;;;;5012374;28;20116;-62
2023/12/06 14:08:19;;;;;;;18.50;11.00;;;;;;;;;;5011278;28;20061;-60
2023/12/06 14:10:44;;;;;;;25.23;12.70;;;;;;;;;;5012198;28;20042;-60
2023/12/06 14:13:09;;;;;;;25.42;12.90;;;;;;;;;;5012115;28;20037;-61